Time;durP1;ratioP1;P1;durP2;ratioP2;P2;SDS_P1;SDS_P2;PMS_P1;PMS_P2;Temp;Humidity;BMP_temperature;BMP_pressure;BME280_temperature;BME280_humidity;BME280_pressure;Samples;Min_cycle;Max_cycle;Signal;HPM_P1;HPM_P2
2022/03/10 00:00:10;;;;;;;33.93;18.17;;;3.50;67.60;;;;;;5090988;28;20422;-77
2022/03/10 00:02:36;;;;;;;41.87;19.33;;;3.10;69.20;;;;;;5090008;28;21026;-78
2022/03/10 00:05:03;;;;;;;45.70;23.07;;;3.00;70.20;;;;;;5090314;28;20500;-78
2022/03/10 00:07:28;;;;;;;46.05;23.55;;;2.90;71.50;;;;;;5089417;28;20454;-78
2022/03/10 00:09:54;;;;;;;35.37;18.63;;;2.80;72.80;;;;;;5054913;28;20221;-78
2022/03/10 00:12:20;;;;;;;36.17;18.77;;;2.70;73.50;;;;;;5090000;28;20678;-78
2022/03/10 00:14:45;;;;;;;37.43;20.53;;;2.60;74.20;;;;;;5071636;28;20196;-78
2022/03/10 00:17:11;;;;;;;39.43;20.47;;;2.60;75.00;;;;;;5090093;28;20215;-79
2022/03/10 00:19:37;;;;;;;35.50;18.03;;;2.50;75.20;;;;;;5071665;28;20184;-78
2022/03/10 00:22:03;;;;;;;38.10;20.13;;;2.40;76.20;;;;;;5088643;28;20205;-78
2022/03/10 00:24:28;;;;;;;30.67;16.35;;;2.40;76.50;;;;;;5090063;28;20182;-79
2022/03/10 00:26:54;;;;;;;30.33;17.27;;;2.30;77.20;;;;;;5088922;28;20185;-79
2022/03/10 00:29:20;;;;;;;28.87;17.03;;;2.40;77.20;;;;;;5072131;28;20184;-78
2022/03/10 00:31:45;;;;;;;30.50;16.70;;;2.40;77.00;;;;;;5055334;28;20271;-78
2022/03/10 00:34:11;;;;;;;30.90;16.73;;;2.40;77.90;;;;;;5088417;28;20186;-77
2022/03/10 00:36:37;;;;;;;22.40;14.40;;;2.30;78.10;;;;;;5087668;28;20265;-76
2022/03/10 00:39:03;;;;;;;26.00;13.37;;;2.20;78.80;;;;;;5070579;28;20185;-76
2022/03/10 00:41:29;;;;;;;29.10;14.03;;;2.20;79.70;;;;;;5088922;28;20212;-77
2022/03/10 00:43:55;;;;;;;21.50;11.63;;;2.10;80.00;;;;;;5088931;28;20505;-77
2022/03/10 00:46:20;;;;;;;26.60;13.50;;;2.10;80.90;;;;;;5089020;28;20182;-77
2022/03/10 00:48:46;;;;;;;28.67;15.63;;;2.00;80.60;;;;;;5088612;28;20188;-77
2022/03/10 00:51:12;;;;;;;24.77;14.87;;;2.00;81.40;;;;;;5088516;28;20677;-77
2022/03/10 00:53:38;;;;;;;25.63;13.53;;;2.00;82.00;;;;;;5088550;28;20618;-77
2022/03/10 00:56:03;;;;;;;23.50;13.30;;;2.00;82.90;;;;;;5088477;28;20189;-77
2022/03/10 00:58:29;;;;;;;19.80;11.23;;;1.90;82.40;;;;;;5087595;28;20182;-77
2022/03/10 01:00:55;;;;;;;18.10;10.80;;;1.80;83.70;;;;;;5087937;28;20479;-78
2022/03/10 01:03:21;;;;;;;18.33;10.20;;;1.80;84.60;;;;;;5089083;28;20734;-78
2022/03/10 01:05:47;;;;;;;22.50;11.30;;;1.70;85.50;;;;;;5089405;28;20491;-78
2022/03/10 01:08:13;;;;;;;19.38;10.73;;;1.80;85.20;;;;;;5088677;28;20185;-77
2022/03/10 01:10:39;;;;;;;18.97;11.73;;;1.80;84.10;;;;;;5087204;28;20302;-77
2022/03/10 01:13:12;;;;;;;27.20;13.20;;;1.90;84.10;;;;;;5088607;28;20617;-76
2022/03/10 01:15:38;;;;;;;25.45;12.25;;;1.90;83.60;;;;;;5088793;28;20672;-77
2022/03/10 01:18:03;;;;;;;25.60;14.00;;;1.90;83.60;;;;;;5087209;28;20185;-77
2022/03/10 01:20:29;;;;;;;19.53;11.27;;;1.90;83.40;;;;;;5088979;28;20217;-77
2022/03/10 01:22:55;;;;;;;27.73;14.20;;;1.80;84.10;;;;;;5087967;28;20213;-79
2022/03/10 01:25:20;;;;;;;27.23;13.27;;;1.80;84.10;;;;;;5070757;28;20185;-77
2022/03/10 01:27:47;;;;;;;21.57;12.17;;;1.70;84.40;;;;;;5088449;28;20190;-76
2022/03/10 01:30:14;;;;;;;20.42;10.52;;;1.70;84.30;;;;;;5088309;28;20211;-76
2022/03/10 01:32:40;;;;;;;21.33;11.70;;;1.80;84.50;;;;;;5088326;28;20205;-76
2022/03/10 01:35:06;;;;;;;21.50;11.53;;;1.70;84.50;;;;;;5087348;28;20228;-77
2022/03/10 01:37:37;;;;;;;24.48;13.48;;;1.70;85.30;;;;;;5087065;28;20417;-76
2022/03/10 01:40:08;;;;;;;27.63;13.70;;;1.60;84.90;;;;;;5071162;28;20186;-77
2022/03/10 01:42:35;;;;;;;20.52;12.57;;;1.50;86.00;;;;;;5088453;28;20438;-78
2022/03/10 01:45:01;;;;;;;23.50;11.73;;;1.50;87.20;;;;;;5089602;28;20231;-82
2022/03/10 01:47:27;;;;;;;22.53;11.30;;;1.40;87.40;;;;;;5088370;28;20652;-77
2022/03/10 01:49:52;;;;;;;20.80;10.73;;;1.30;87.60;;;;;;5088765;28;20845;-76
2022/03/10 01:52:20;;;;;;;28.70;12.60;;;1.30;88.00;;;;;;5088057;28;20315;-78
2022/03/10 01:54:45;;;;;;;21.70;12.35;;;1.30;89.00;;;;;;5088849;28;20314;-76
2022/03/10 01:57:11;;;;;;;20.83;11.80;;;1.30;89.60;;;;;;5087327;28;20311;-76
2022/03/10 01:59:39;;;;;;;20.57;11.47;;;1.20;89.40;;;;;;5088789;28;20180;-77
2022/03/10 02:02:06;;;;;;;23.42;12.48;;;1.20;89.20;;;;;;5087707;28;20433;-78
2022/03/10 02:04:32;;;;;;;22.33;12.25;;;1.20;88.80;;;;;;5091380;28;20596;-79
2022/03/10 02:06:58;;;;;;;32.28;13.60;;;1.30;88.30;;;;;;5092802;28;20716;-78
2022/03/10 02:12:08;;;;;;;20.35;12.07;;;1.50;87.50;;;;;;5093155;28;20279;-77
2022/03/10 02:17:21;;;;;;;15.73;9.82;;;1.50;88.30;;;;;;5077354;28;20619;-78
2022/03/10 02:19:58;;;;;;;14.57;9.05;;;1.50;88.40;;;;;;5092832;28;20193;-78
2022/03/10 02:22:26;;;;;;;16.73;8.52;;;1.50;88.50;;;;;;5092906;28;20200;-79
2022/03/10 02:24:53;;;;;;;18.15;9.25;;;1.50;88.30;;;;;;5074362;28;20275;-80
2022/03/10 02:27:20;;;;;;;18.08;10.52;;;1.60;88.30;;;;;;5092562;28;20184;-80
2022/03/10 02:29:50;;;;;;;20.35;10.30;;;1.40;88.70;;;;;;5092452;28;20555;-80
2022/03/10 02:32:17;;;;;;;27.40;12.02;;;1.40;89.20;;;;;;5075522;28;20309;-78
2022/03/10 02:34:43;;;;;;;21.50;12.70;;;1.30;89.30;;;;;;5091555;28;20188;-80
2022/03/10 02:37:10;;;;;;;22.25;12.68;;;1.30;90.20;;;;;;5093257;28;20488;-79
2022/03/10 02:39:37;;;;;;;25.98;13.82;;;1.20;90.00;;;;;;5092811;28;20185;-78
2022/03/10 02:42:04;;;;;;;25.25;15.85;;;1.20;90.50;;;;;;5091390;28;20292;-80
2022/03/10 02:44:30;;;;;;;29.15;15.60;;;1.20;90.40;;;;;;5093587;28;20181;-80
2022/03/10 02:46:56;;;;;;;32.30;16.10;;;1.20;90.60;;;;;;5091664;28;20611;-78
2022/03/10 02:49:22;;;;;;;33.70;16.03;;;1.10;90.50;;;;;;5091233;28;20460;-78
2022/03/10 02:51:48;;;;;;;29.80;17.17;;;1.10;90.70;;;;;;5090545;28;20207;-78
2022/03/10 02:54:14;;;;;;;31.92;16.23;;;1.00;90.90;;;;;;5092122;28;20435;-78
2022/03/10 02:56:40;;;;;;;31.87;16.60;;;0.90;90.90;;;;;;5074147;28;20259;-78
2022/03/10 02:59:06;;;;;;;32.77;17.73;;;1.00;91.20;;;;;;5092348;28;20173;-78
2022/03/10 03:01:32;;;;;;;33.20;16.87;;;0.80;91.20;;;;;;5092189;28;20215;-77
2022/03/10 03:03:57;;;;;;;31.10;15.73;;;0.80;91.80;;;;;;5090702;28;20807;-77
2022/03/10 03:06:23;;;;;;;27.30;16.30;;;0.70;92.00;;;;;;5091965;28;20412;-78
2022/03/10 03:08:49;;;;;;;32.53;15.70;;;0.60;92.10;;;;;;5092201;28;21041;-76
2022/03/10 03:11:15;;;;;;;28.50;15.60;;;0.60;92.20;;;;;;5091924;28;20469;-77
2022/03/10 03:13:40;;;;;;;28.87;15.60;;;0.50;92.40;;;;;;5090998;28;20182;-78
2022/03/10 03:16:06;;;;;;;35.07;17.53;;;0.40;92.60;;;;;;5091867;28;20175;-77
2022/03/10 03:18:32;;;;;;;32.97;17.70;;;0.40;92.80;;;;;;5090656;28;20193;-78
2022/03/10 03:20:58;;;;;;;34.90;17.15;;;0.40;93.40;;;;;;5092206;28;20703;-78
2022/03/10 03:23:24;;;;;;;25.87;15.63;;;0.30;93.60;;;;;;5092815;28;20208;-76
2022/03/10 03:25:50;;;;;;;25.47;14.73;;;0.30;93.60;;;;;;5092387;28;20423;-78
2022/03/10 03:28:16;;;;;;;26.25;14.60;;;0.00;94.10;;;;;;5092279;28;20216;-78
2022/03/10 03:30:42;;;;;;;22.15;13.55;;;-0.10;94.20;;;;;;5090701;28;20207;-78
2022/03/10 03:33:08;;;;;;;25.13;14.20;;;0.00;94.50;;;;;;5090944;28;20588;-78
2022/03/10 03:35:34;;;;;;;25.20;13.77;;;0.10;94.40;;;;;;5090965;28;20733;-78
2022/03/10 03:37:59;;;;;;;24.37;11.83;;;0.10;94.40;;;;;;5092485;28;20171;-79
2022/03/10 03:40:25;;;;;;;23.97;12.20;;;0.10;94.40;;;;;;5090708;28;20421;-78
2022/03/10 03:42:51;;;;;;;21.93;12.70;;;0.10;94.60;;;;;;5092406;28;20234;-78
2022/03/10 03:45:16;;;;;;;19.47;11.30;;;0.10;94.60;;;;;;5090224;28;20250;-78
2022/03/10 03:47:42;;;;;;;18.73;11.33;;;0.10;94.70;;;;;;5073209;28;20196;-78
2022/03/10 03:50:08;;;;;;;18.10;10.10;;;0.00;94.80;;;;;;5090183;28;20226;-79
2022/03/10 03:52:34;;;;;;;15.77;9.10;;;0.00;94.90;;;;;;5090698;28;20216;-78
2022/03/10 03:55:01;;;;;;;16.02;9.77;;;0.00;94.80;;;;;;5091615;28;20219;-77
2022/03/10 03:57:26;;;;;;;13.68;9.20;;;0.10;95.10;;;;;;5090320;28;20275;-76
2022/03/10 03:59:52;;;;;;;14.77;8.10;;;0.00;95.30;;;;;;5091258;28;20338;-76
2022/03/10 04:02:18;;;;;;;14.93;8.80;;;0.00;95.30;;;;;;5091003;28;20228;-76
2022/03/10 04:04:43;;;;;;;14.57;8.20;;;0.00;95.30;;;;;;5089402;28;20636;-77
2022/03/10 04:07:09;;;;;;;13.93;8.00;;;0.00;95.30;;;;;;5092122;28;20257;-77
2022/03/10 04:09:35;;;;;;;14.83;8.17;;;0.00;95.60;;;;;;5093923;28;20182;-77
2022/03/10 04:12:01;;;;;;;12.47;6.97;;;-0.10;95.90;;;;;;5090838;28;20468;-78
2022/03/10 04:14:27;;;;;;;11.07;6.25;;;0.10;96.20;;;;;;5090818;28;20177;-77
2022/03/10 04:16:53;;;;;;;10.27;6.30;;;0.00;95.90;;;;;;5090764;28;20186;-77
2022/03/10 04:19:18;;;;;;;18.20;7.63;;;0.10;95.40;;;;;;5088942;28;20266;-79
2022/03/10 04:21:45;;;;;;;10.23;6.80;;;0.10;95.50;;;;;;5089305;28;20217;-76
2022/03/10 04:24:10;;;;;;;10.35;6.55;;;0.00;95.40;;;;;;5092772;28;20187;-78
2022/03/10 04:26:36;;;;;;;10.10;6.30;;;0.00;95.50;;;;;;5091947;28;20255;-78
2022/03/10 04:29:01;;;;;;;12.03;7.57;;;-0.10;95.90;;;;;;5093461;28;20564;-78
2022/03/10 04:31:27;;;;;;;12.40;6.87;;;-0.10;96.20;;;;;;5075457;28;20217;-79
2022/03/10 04:33:53;;;;;;;8.87;6.60;;;-0.10;96.10;;;;;;5092859;28;20261;-80
2022/03/10 04:36:18;;;;;;;9.57;6.33;;;-0.10;96.10;;;;;;5095241;28;20689;-80
2022/03/10 04:38:44;;;;;;;16.23;6.53;;;-0.10;96.10;;;;;;5096586;28;20185;-80
2022/03/10 04:41:11;;;;;;;11.10;7.13;;;-0.20;96.20;;;;;;5092365;28;20195;-79
2022/03/10 04:43:37;;;;;;;12.05;7.40;;;-0.20;96.30;;;;;;5090395;28;20254;-80
2022/03/10 04:46:03;;;;;;;11.63;6.63;;;0.00;96.50;;;;;;5089962;28;20182;-77
2022/03/10 04:48:29;;;;;;;12.07;7.57;;;-0.30;96.50;;;;;;5090407;28;20181;-76
2022/03/10 04:50:55;;;;;;;10.60;6.97;;;-0.20;96.80;;;;;;5090313;28;21003;-76
2022/03/10 04:53:21;;;;;;;10.43;6.90;;;-0.30;96.80;;;;;;5090197;28;20196;-76
2022/03/10 04:55:47;;;;;;;11.10;7.93;;;-0.30;97.10;;;;;;5088825;28;20167;-77
2022/03/10 04:58:12;;;;;;;11.97;7.60;;;-0.30;97.30;;;;;;5090032;28;20925;-76
2022/03/10 05:00:38;;;;;;;14.07;7.63;;;-0.40;97.40;;;;;;5087856;28;20435;-77
2022/03/10 05:03:04;;;;;;;12.70;7.20;;;-0.40;97.80;;;;;;5087829;28;20306;-78
2022/03/10 05:05:30;;;;;;;24.13;9.73;;;-0.40;97.60;;;;;;5089525;28;20767;-79
2022/03/10 05:07:55;;;;;;;14.87;9.70;;;-0.40;97.40;;;;;;5089306;28;20262;-77
2022/03/10 05:10:21;;;;;;;14.23;8.93;;;-0.50;97.30;;;;;;5088851;28;20231;-78
2022/03/10 05:13:01;;;;;;;19.17;9.13;;;-0.50;97.70;;;;;;5088315;28;20193;-79
2022/03/10 05:15:30;;;;;;;12.77;8.38;;;-0.40;98.00;;;;;;5088175;28;20414;-79
2022/03/10 05:18:00;;;;;;;12.98;8.15;;;-0.50;98.00;;;;;;5086396;28;20249;-77
2022/03/10 05:20:28;;;;;;;14.95;9.30;;;-0.60;98.30;;;;;;5088252;28;20240;-76
2022/03/10 05:22:58;;;;;;;15.00;10.10;;;-0.60;97.90;;;;;;5087365;28;20200;-77
2022/03/10 05:25:30;;;;;;;10.95;8.10;;;-0.60;98.10;;;;;;5088545;28;20596;-75
2022/03/10 05:27:56;;;;;;;13.25;8.90;;;-0.70;98.20;;;;;;5088330;28;20308;-76
2022/03/10 05:30:22;;;;;;;11.27;8.47;;;-0.70;98.20;;;;;;5088507;28;20303;-78
2022/03/10 05:32:47;;;;;;;13.07;7.83;;;-0.70;98.30;;;;;;5088711;28;20211;-77
2022/03/10 05:35:15;;;;;;;14.33;7.83;;;-0.70;99.10;;;;;;5088722;28;20268;-78
2022/03/10 05:37:41;;;;;;;12.65;8.40;;;-0.80;98.50;;;;;;5090394;28;20178;-77
2022/03/10 05:40:08;;;;;;;15.48;8.93;;;-0.70;98.80;;;;;;5090794;28;20186;-76
2022/03/10 05:42:37;;;;;;;13.00;7.97;;;-0.80;98.60;;;;;;5092152;28;20207;-77
2022/03/10 05:45:03;;;;;;;11.35;6.90;;;-0.70;98.30;;;;;;5092082;28;20210;-77
2022/03/10 05:47:29;;;;;;;12.73;8.13;;;-0.70;98.30;;;;;;5090997;28;20225;-77
2022/03/10 05:49:55;;;;;;;15.13;8.27;;;-0.70;98.10;;;;;;5090722;28;20436;-77
2022/03/10 05:52:20;;;;;;;21.03;11.67;;;-0.60;98.40;;;;;;5090894;28;20206;-76
2022/03/10 05:54:46;;;;;;;13.00;8.43;;;-0.70;98.20;;;;;;5092181;28;20255;-77
2022/03/10 05:57:12;;;;;;;15.40;7.30;;;-0.70;98.30;;;;;;5092358;28;20527;-78
2022/03/10 05:59:37;;;;;;;12.80;8.53;;;-0.70;98.40;;;;;;5090427;28;20192;-77
2022/03/10 06:02:03;;;;;;;19.60;8.97;;;-0.80;98.50;;;;;;5073794;28;20212;-75
2022/03/10 06:04:29;;;;;;;20.43;10.90;;;-0.80;98.70;;;;;;5092303;28;20197;-77
2022/03/10 06:06:54;;;;;;;13.93;8.83;;;-0.60;98.70;;;;;;5090790;28;20183;-77
2022/03/10 06:09:20;;;;;;;16.17;6.80;;;-0.80;99.10;;;;;;5073316;28;20896;-77
2022/03/10 06:11:45;;;;;;;12.40;7.10;;;-0.80;98.70;;;;;;5072844;28;20299;-76
2022/03/10 06:14:11;;;;;;;14.93;5.73;;;-0.70;99.00;;;;;;5091617;28;20645;-77
2022/03/10 06:16:38;;;;;;;10.23;6.90;;;-0.80;98.90;;;;;;5092054;28;20645;-76
2022/03/10 06:19:04;;;;;;;14.68;10.70;;;-0.60;98.80;;;;;;5091738;28;20864;-77
2022/03/10 06:21:29;;;;;;;24.20;14.17;;;-0.60;98.70;;;;;;5090716;28;20326;-76
2022/03/10 06:23:56;;;;;;;17.77;9.50;;;-0.60;99.00;;;;;;5092489;28;21077;-78
2022/03/10 06:26:21;;;;;;;12.88;9.13;;;-0.60;99.10;;;;;;5090955;28;20417;-78
2022/03/10 06:28:47;;;;;;;32.23;9.87;;;-0.60;99.50;;;;;;5092517;28;20184;-77
2022/03/10 06:31:13;;;;;;;18.07;9.30;;;-0.40;99.60;;;;;;5095737;28;20690;-77
2022/03/10 06:33:38;;;;;;;13.23;8.67;;;0.20;99.90;;;;;;5101432;28;20675;-77
2022/03/10 06:36:05;;;;;;;14.90;9.27;;;1.20;97.20;;;;;;5080029;28;20193;-76
2022/03/10 06:38:32;;;;;;;16.05;8.73;;;2.40;94.00;;;;;;5101047;28;20179;-77
2022/03/10 06:40:58;;;;;;;18.33;9.27;;;3.60;91.00;;;;;;5093301;28;20186;-77
2022/03/10 06:43:23;;;;;;;15.77;9.63;;;4.60;84.90;;;;;;5090015;28;20221;-76
2022/03/10 06:45:49;;;;;;;17.00;10.40;;;5.10;81.00;;;;;;5090608;28;20186;-74
2022/03/10 06:48:15;;;;;;;18.77;11.10;;;5.80;77.60;;;;;;5090287;28;20186;-76
2022/03/10 06:50:40;;;;;;;19.13;11.10;;;6.00;74.90;;;;;;5088596;28;20229;-78
2022/03/10 06:53:06;;;;;;;21.73;14.40;;;6.30;72.70;;;;;;5072146;28;20246;-78
2022/03/10 06:55:31;;;;;;;24.07;15.87;;;6.00;71.20;;;;;;5088600;28;20732;-78
2022/03/10 06:57:57;;;;;;;24.30;15.47;;;6.10;71.20;;;;;;5090918;28;20191;-76
2022/03/10 07:00:24;;;;;;;25.30;16.20;;;6.40;70.30;;;;;;5094463;28;20176;-77
2022/03/10 07:02:52;;;;;;;29.17;18.20;;;6.90;68.50;;;;;;5097228;28;20302;-77
2022/03/10 07:05:17;;;;;;;31.67;18.40;;;7.00;67.30;;;;;;5099339;28;20417;-76
2022/03/10 07:07:43;;;;;;;26.33;17.33;;;7.10;66.10;;;;;;5096874;28;20418;-77
2022/03/10 07:10:10;;;;;;;25.23;15.33;;;7.10;65.10;;;;;;5094969;28;20590;-76
2022/03/10 07:12:40;;;;;;;24.67;16.30;;;6.90;65.10;;;;;;5093382;28;20449;-75
2022/03/10 07:15:07;;;;;;;24.73;16.30;;;7.00;65.40;;;;;;5103928;28;20429;-77
2022/03/10 07:17:33;;;;;;;25.63;17.33;;;6.80;64.60;;;;;;5094664;28;20416;-77
2022/03/10 07:19:59;;;;;;;28.63;17.57;;;6.50;66.00;;;;;;5097112;28;20414;-77
2022/03/10 07:22:25;;;;;;;30.27;17.60;;;6.30;66.40;;;;;;5066619;28;20453;-77
2022/03/10 07:24:52;;;;;;;31.63;20.10;;;6.20;67.00;;;;;;5097306;28;20280;-77
2022/03/10 07:27:18;;;;;;;31.07;21.00;;;6.50;67.30;;;;;;5089675;28;20438;-77
2022/03/10 07:29:43;;;;;;;27.93;18.40;;;6.50;66.60;;;;;;5090439;28;20420;-78
2022/03/10 07:32:09;;;;;;;31.87;18.93;;;6.70;66.00;;;;;;5072020;28;20315;-78
2022/03/10 07:34:35;;;;;;;25.90;16.30;;;6.80;65.60;;;;;;5089133;28;20217;-77
2022/03/10 07:37:01;;;;;;;24.43;14.00;;;7.00;64.80;;;;;;5088865;28;20219;-76
2022/03/10 07:39:27;;;;;;;21.70;14.97;;;7.10;64.70;;;;;;5088463;28;20187;-78
2022/03/10 07:41:53;;;;;;;27.07;15.40;;;7.40;64.60;;;;;;5087979;28;20446;-78
2022/03/10 07:44:19;;;;;;;25.23;14.53;;;7.70;64.30;;;;;;5088906;28;20801;-78
2022/03/10 07:46:45;;;;;;;23.23;15.03;;;7.70;64.00;;;;;;5089794;28;20252;-78
2022/03/10 07:49:11;;;;;;;25.07;14.23;;;8.10;64.60;;;;;;5088734;28;20481;-78
2022/03/10 07:51:38;;;;;;;33.57;17.00;;;8.00;64.30;;;;;;5089664;28;20877;-78
2022/03/10 07:54:03;;;;;;;31.07;18.00;;;7.90;63.70;;;;;;5092537;28;20194;-78
2022/03/10 07:56:29;;;;;;;31.40;17.80;;;7.80;63.00;;;;;;5091980;28;20417;-78
2022/03/10 07:58:54;;;;;;;35.43;20.70;;;7.20;64.30;;;;;;5091728;28;20193;-78
2022/03/10 08:01:20;;;;;;;28.00;17.47;;;7.20;66.80;;;;;;5087461;28;20190;-80
2022/03/10 08:03:47;;;;;;;35.17;21.20;;;7.30;66.00;;;;;;5088625;28;20194;-77
2022/03/10 08:06:13;;;;;;;26.50;17.30;;;7.30;65.70;;;;;;5088467;28;20540;-79
2022/03/10 08:08:38;;;;;;;26.80;17.00;;;7.30;65.60;;;;;;5086672;28;20521;-78
2022/03/10 08:11:05;;;;;;;24.00;14.00;;;7.60;66.60;;;;;;5088750;28;20472;-78
2022/03/10 08:13:31;;;;;;;23.07;13.00;;;8.00;65.60;;;;;;5088644;28;20452;-78
2022/03/10 08:15:57;;;;;;;21.67;14.50;;;8.50;65.10;;;;;;5089839;28;20453;-78
2022/03/10 08:18:23;;;;;;;19.93;12.93;;;8.90;62.30;;;;;;5087390;28;20956;-79
2022/03/10 08:20:49;;;;;;;19.97;13.37;;;9.10;61.60;;;;;;5086935;28;20453;-78
2022/03/10 08:23:17;;;;;;;21.93;13.40;;;9.20;60.00;;;;;;5086940;28;20649;-79
2022/03/10 08:25:43;;;;;;;20.40;13.40;;;9.80;60.40;;;;;;5088325;28;20506;-78
2022/03/10 08:28:09;;;;;;;25.50;13.83;;;10.10;58.30;;;;;;5087166;28;20440;-76
2022/03/10 08:30:34;;;;;;;26.87;15.67;;;10.30;57.70;;;;;;5088678;28;21116;-77
2022/03/10 08:33:00;;;;;;;24.27;16.63;;;10.60;56.80;;;;;;5087137;28;20202;-78
2022/03/10 08:35:26;;;;;;;23.40;14.70;;;10.50;55.80;;;;;;5089354;28;20178;-77
2022/03/10 08:37:52;;;;;;;22.83;14.67;;;10.60;56.10;;;;;;5086492;28;20187;-78
2022/03/10 08:40:19;;;;;;;25.60;15.77;;;11.00;56.10;;;;;;5085799;28;20492;-79
2022/03/10 08:42:46;;;;;;;19.77;13.60;;;11.30;55.20;;;;;;5087111;28;20238;-77
2022/03/10 08:45:12;;;;;;;21.27;14.07;;;11.30;54.40;;;;;;5069738;28;20421;-78
2022/03/10 08:47:38;;;;;;;18.37;12.97;;;11.70;53.30;;;;;;5086561;28;20996;-78
2022/03/10 08:50:05;;;;;;;21.50;14.50;;;12.10;52.70;;;;;;5087583;28;20507;-77
2022/03/10 08:52:31;;;;;;;21.63;14.80;;;12.40;51.90;;;;;;5088357;28;20444;-79
2022/03/10 08:54:57;;;;;;;21.47;13.90;;;13.00;50.70;;;;;;5088992;28;20442;-78
2022/03/10 08:57:23;;;;;;;21.10;14.10;;;13.20;49.50;;;;;;5089488;28;20590;-79
2022/03/10 08:59:48;;;;;;;35.03;16.30;;;13.40;48.90;;;;;;5071076;28;20424;-79
2022/03/10 09:02:14;;;;;;;22.77;16.00;;;13.40;48.10;;;;;;5071381;28;20257;-78
2022/03/10 09:04:40;;;;;;;22.67;14.33;;;13.40;47.20;;;;;;5090166;28;20202;-79
2022/03/10 09:07:05;;;;;;;23.80;15.23;;;13.90;47.40;;;;;;5087976;28;20561;-79
2022/03/10 09:09:31;;;;;;;23.97;15.03;;;14.60;46.60;;;;;;5088206;28;20185;-77
2022/03/10 09:11:57;;;;;;;22.40;14.63;;;14.80;46.20;;;;;;5071517;28;20675;-78
2022/03/10 09:14:23;;;;;;;24.80;15.00;;;15.50;46.10;;;;;;5090638;28;20293;-78
2022/03/10 09:16:51;;;;;;;28.83;15.00;;;15.80;44.60;;;;;;5090513;28;20875;-77
2022/03/10 09:19:17;;;;;;;21.20;14.50;;;16.30;44.00;;;;;;5091679;28;20186;-77
2022/03/10 09:21:43;;;;;;;24.03;13.60;;;16.60;44.00;;;;;;5090126;28;20440;-78
2022/03/10 09:24:10;;;;;;;19.53;13.60;;;17.10;43.20;;;;;;5091692;28;20420;-78
2022/03/10 09:26:37;;;;;;;18.17;12.17;;;17.30;42.50;;;;;;5091579;28;20427;-77
2022/03/10 09:29:03;;;;;;;16.17;12.30;;;17.60;41.90;;;;;;5091732;28;20416;-78
2022/03/10 09:31:29;;;;;;;18.67;12.57;;;18.10;40.00;;;;;;5091324;28;20465;-77
2022/03/10 09:33:55;;;;;;;22.00;13.77;;;18.50;40.10;;;;;;5091483;28;20982;-77
2022/03/10 09:36:20;;;;;;;29.67;17.00;;;18.60;39.10;;;;;;5095029;28;20620;-78
2022/03/10 09:38:46;;;;;;;23.20;16.63;;;18.40;39.30;;;;;;5097845;28;20841;-79
2022/03/10 09:41:12;;;;;;;26.73;16.40;;;18.30;38.90;;;;;;5097620;28;20200;-78
2022/03/10 09:43:39;;;;;;;23.90;15.00;;;18.70;38.10;;;;;;5096821;28;20446;-78
2022/03/10 09:46:08;;;;;;;26.20;15.00;;;19.00;38.10;;;;;;5097306;28;20418;-79
2022/03/10 09:48:35;;;;;;;19.60;12.13;;;19.00;37.40;;;;;;5095468;28;20456;-78
2022/03/10 09:51:01;;;;;;;14.20;9.83;;;19.00;36.30;;;;;;5096964;28;20474;-78
2022/03/10 09:53:30;;;;;;;9.77;4.30;;;19.40;35.50;;;;;;5096922;28;20445;-79
2022/03/10 09:55:56;;;;;;;3.73;3.20;;;19.20;32.80;;;;;;5093961;28;20563;-77
2022/03/10 09:58:22;;;;;;;3.67;3.20;;;18.90;31.80;;;;;;5093419;28;20863;-78
2022/03/10 10:00:47;;;;;;;6.10;2.90;;;19.40;31.80;;;;;;5091338;28;20423;-77
2022/03/10 10:03:13;;;;;;;3.67;2.57;;;19.20;31.20;;;;;;5092019;28;20796;-77
2022/03/10 10:05:40;;;;;;;9.43;2.93;;;18.60;30.60;;;;;;5094448;28;20661;-77
2022/03/10 10:08:17;;;;;;;4.47;3.13;;;18.70;30.80;;;;;;5089880;28;20199;-78
2022/03/10 10:10:44;;;;;;;3.70;3.03;;;18.50;30.40;;;;;;5092914;28;20525;-77
2022/03/10 10:13:23;;;;;;;3.90;3.07;;;19.00;30.40;;;;;;5091189;28;20577;-78
2022/03/10 10:15:54;;;;;;;3.23;2.97;;;18.70;29.90;;;;;;5091312;28;21391;-77
2022/03/10 10:18:20;;;;;;;3.77;2.83;;;18.10;29.60;;;;;;5090929;28;20448;-78
2022/03/10 10:20:52;;;;;;;5.60;2.83;;;18.30;30.10;;;;;;5089847;28;20922;-79
2022/03/10 10:23:28;;;;;;;3.73;2.80;;;18.40;29.80;;;;;;5090193;28;20687;-77
2022/03/10 10:25:58;;;;;;;4.60;3.83;;;18.90;30.00;;;;;;5090530;28;20413;-77
2022/03/10 10:28:31;;;;;;;4.20;3.20;;;19.00;29.70;;;;;;5089547;28;20884;-77
2022/03/10 10:31:11;;;;;;;3.33;3.03;;;19.00;29.50;;;;;;5091902;28;20488;-76
2022/03/10 10:33:39;;;;;;;5.97;2.93;;;19.40;29.30;;;;;;5095157;28;20925;-78
2022/03/10 10:36:14;;;;;;;3.23;2.93;;;18.60;28.30;;;;;;5096343;28;20454;-79
2022/03/10 10:38:41;;;;;;;8.93;3.47;;;17.90;28.60;;;;;;5094524;28;20523;-78
2022/03/10 10:41:25;;;;;;;4.90;4.07;;;17.90;29.00;;;;;;5089591;28;20481;-77
2022/03/10 10:44:15;;;;;;;3.27;2.97;;;17.70;28.80;;;;;;5097144;28;20420;-78
2022/03/10 10:46:44;;;;;;;5.97;3.30;;;17.80;29.00;;;;;;5096599;28;20425;-78
2022/03/10 10:49:15;;;;;;;3.60;3.30;;;17.80;29.20;;;;;;5091601;28;20802;-79
2022/03/10 10:51:47;;;;;;;5.10;3.60;;;17.50;28.50;;;;;;5077826;28;21107;-79
2022/03/10 10:54:24;;;;;;;7.23;3.90;;;17.50;28.80;;;;;;5095619;28;20435;-78
2022/03/10 10:56:55;;;;;;;5.57;3.60;;;18.40;29.50;;;;;;5090839;28;20431;-78
2022/03/10 10:59:34;;;;;;;3.30;2.87;;;18.40;29.10;;;;;;5089389;28;21289;-78
2022/03/10 11:02:20;;;;;;;3.90;3.50;;;18.50;28.90;;;;;;5090899;28;21257;-78
2022/03/10 11:04:51;;;;;;;3.80;3.50;;;18.60;28.60;;;;;;5091286;28;20422;-78
2022/03/10 11:07:17;;;;;;;4.60;3.10;;;18.70;28.60;;;;;;5074864;28;20425;-77
2022/03/10 11:09:46;;;;;;;3.63;3.07;;;19.00;28.70;;;;;;5072008;28;20421;-76
2022/03/10 11:12:14;;;;;;;3.90;3.50;;;19.10;28.30;;;;;;5089920;28;21275;-79
2022/03/10 11:14:41;;;;;;;4.37;2.90;;;19.50;27.90;;;;;;5094393;28;20427;-79
2022/03/10 11:17:07;;;;;;;3.40;3.10;;;19.60;27.70;;;;;;5096190;28;20513;-79
2022/03/10 11:19:37;;;;;;;8.40;3.40;;;19.70;27.40;;;;;;5095994;28;20910;-79
2022/03/10 11:22:17;;;;;;;3.67;2.83;;;19.00;26.60;;;;;;5097036;28;20521;-79
2022/03/10 11:25:07;;;;;;;3.80;2.93;;;18.00;26.40;;;;;;5094367;28;20578;-79
2022/03/10 11:27:37;;;;;;;3.40;3.10;;;17.60;27.20;;;;;;5090272;28;20471;-77
2022/03/10 11:30:05;;;;;;;5.60;3.23;;;18.60;28.00;;;;;;5072679;28;20492;-78
2022/03/10 11:32:31;;;;;;;3.20;2.57;;;18.70;27.30;;;;;;5091239;28;20443;-77
2022/03/10 11:35:00;;;;;;;10.93;3.10;;;18.10;26.90;;;;;;5089282;28;20432;-77
2022/03/10 11:37:41;;;;;;;4.00;2.80;;;18.20;27.30;;;;;;5094732;28;20434;-78
2022/03/10 11:40:15;;;;;;;5.00;3.00;;;18.30;27.10;;;;;;5089222;28;20423;-78
2022/03/10 11:42:41;;;;;;;3.83;2.30;;;18.20;26.80;;;;;;5072806;28;21034;-77
2022/03/10 11:45:28;;;;;;;3.40;2.97;;;18.40;27.10;;;;;;5092531;28;20438;-77
2022/03/10 11:47:54;;;;;;;3.00;2.57;;;17.80;26.90;;;;;;5090888;28;20426;-77
2022/03/10 11:50:22;;;;;;;2.73;2.53;;;18.00;27.40;;;;;;5089753;28;20461;-77
2022/03/10 11:53:00;;;;;;;4.30;3.30;;;18.10;27.70;;;;;;5090117;28;20207;-77
2022/03/10 11:55:46;;;;;;;5.23;3.40;;;18.70;28.10;;;;;;5090652;28;20963;-78
2022/03/10 11:58:35;;;;;;;4.53;3.63;;;19.20;27.80;;;;;;5108759;27;20554;-77
2022/03/10 12:01:01;;;;;;;3.57;2.13;;;19.80;27.80;;;;;;5109761;28;20424;-76
2022/03/10 12:03:33;;;;;;;3.63;2.13;;;19.30;26.40;;;;;;5109526;28;20787;-78
2022/03/10 12:06:15;;;;;;;2.37;2.17;;;19.20;26.60;;;;;;5107025;28;20562;-78
2022/03/10 12:08:42;;;;;;;2.80;2.47;;;18.80;26.70;;;;;;5108552;28;20430;-76
2022/03/10 12:11:13;;;;;;;2.97;2.37;;;18.10;25.80;;;;;;5108821;28;20451;-77
2022/03/10 12:13:44;;;;;;;3.57;2.70;;;18.00;26.40;;;;;;5108914;28;20423;-76
2022/03/10 12:16:27;;;;;;;4.17;3.00;;;18.30;27.30;;;;;;5090327;28;20501;-76
2022/03/10 12:18:54;;;;;;;3.37;2.60;;;18.80;27.70;;;;;;5108995;28;20418;-78
2022/03/10 12:21:28;;;;;;;2.80;2.50;;;19.30;26.90;;;;;;5107296;28;20423;-77
2022/03/10 12:23:54;;;;;;;3.80;2.90;;;19.20;25.50;;;;;;5109401;28;20428;-79
2022/03/10 12:26:26;;;;;;;5.10;3.00;;;19.80;26.70;;;;;;5108239;28;20425;-76
2022/03/10 12:28:55;;;;;;;5.60;3.30;;;19.30;25.10;;;;;;5108369;28;20174;-79
2022/03/10 12:31:24;;;;;;;3.03;2.67;;;19.20;25.70;;;;;;5107789;28;20419;-77
2022/03/10 12:33:53;;;;;;;3.90;3.20;;;19.40;25.70;;;;;;5112363;28;20424;-78
2022/03/10 12:36:36;;;;;;;9.77;3.10;;;18.80;26.20;;;;;;5075326;28;20465;-77
2022/03/10 12:39:06;;;;;;;6.93;3.33;;;18.00;26.10;;;;;;5108292;28;20442;-77
2022/03/10 12:41:54;;;;;;;6.50;3.00;;;17.90;26.00;;;;;;5110299;28;20466;-78
2022/03/10 12:44:24;;;;;;;3.40;3.10;;;18.10;26.00;;;;;;5109631;28;20415;-77